sensor_id;sensor_type;location;lat;lon;timestamp;P1;durP1;ratioP1;P2;durP2;ratioP2
56830;SDS011;42713;42.676;23.352;2023-04-15T00:00:04;6.57;;;2.15;;
56830;SDS011;42713;42.676;23.352;2023-04-15T00:02:31;8.98;;;2.05;;
56830;SDS011;42713;42.676;23.352;2023-04-15T00:04:56;9.85;;;2.25;;
56830;SDS011;42713;42.676;23.352;2023-04-15T00:07:22;9.35;;;2.72;;
56830;SDS011;42713;42.676;23.352;2023-04-15T00:09:47;8.18;;;2.63;;
56830;SDS011;42713;42.676;23.352;2023-04-15T00:12:12;7.22;;;2.58;;
56830;SDS011;42713;42.676;23.352;2023-04-15T00:14:38;11.13;;;2.90;;
56830;SDS011;42713;42.676;23.352;2023-04-15T00:17:04;9.05;;;3.20;;
56830;SDS011;42713;42.676;23.352;2023-04-15T00:19:29;8.43;;;2.80;;
56830;SDS011;42713;42.676;23.352;2023-04-15T00:21:55;7.93;;;2.70;;
56830;SDS011;42713;42.676;23.352;2023-04-15T00:24:21;7.97;;;3.38;;
56830;SDS011;42713;42.676;23.352;2023-04-15T00:26:47;9.48;;;2.80;;
56830;SDS011;42713;42.676;23.352;2023-04-15T00:29:13;10.05;;;2.75;;
56830;SDS011;42713;42.676;23.352;2023-04-15T00:31:39;8.13;;;2.80;;
56830;SDS011;42713;42.676;23.352;2023-04-15T00:34:05;12.05;;;4.10;;
56830;SDS011;42713;42.676;23.352;2023-04-15T00:36:30;12.23;;;3.60;;
56830;SDS011;42713;42.676;23.352;2023-04-15T00:38:57;9.50;;;3.78;;
56830;SDS011;42713;42.676;23.352;2023-04-15T00:41:23;9.32;;;3.47;;
56830;SDS011;42713;42.676;23.352;2023-04-15T00:43:49;10.65;;;3.72;;
56830;SDS011;42713;42.676;23.352;2023-04-15T00:46:15;9.68;;;3.40;;
56830;SDS011;42713;42.676;23.352;2023-04-15T00:48:43;9.45;;;3.67;;
56830;SDS011;42713;42.676;23.352;2023-04-15T00:51:09;10.18;;;3.67;;
56830;SDS011;42713;42.676;23.352;2023-04-15T00:53:35;10.95;;;3.50;;
56830;SDS011;42713;42.676;23.352;2023-04-15T00:56:00;9.00;;;2.92;;
56830;SDS011;42713;42.676;23.352;2023-04-15T00:58:25;9.70;;;3.42;;
56830;SDS011;42713;42.676;23.352;2023-04-15T01:00:52;8.05;;;2.67;;
56830;SDS011;42713;42.676;23.352;2023-04-15T01:03:19;8.90;;;2.70;;
56830;SDS011;42713;42.676;23.352;2023-04-15T01:05:45;8.02;;;2.63;;
56830;SDS011;42713;42.676;23.352;2023-04-15T01:08:11;8.27;;;2.83;;
56830;SDS011;42713;42.676;23.352;2023-04-15T01:10:37;7.55;;;2.10;;
56830;SDS011;42713;42.676;23.352;2023-04-15T01:13:03;5.93;;;2.40;;
56830;SDS011;42713;42.676;23.352;2023-04-15T01:15:29;9.43;;;2.90;;
56830;SDS011;42713;42.676;23.352;2023-04-15T01:17:56;12.35;;;3.50;;
56830;SDS011;42713;42.676;23.352;2023-04-15T01:20:22;8.02;;;3.13;;
56830;SDS011;42713;42.676;23.352;2023-04-15T01:22:48;8.60;;;3.30;;
56830;SDS011;42713;42.676;23.352;2023-04-15T01:25:18;10.52;;;4.00;;
56830;SDS011;42713;42.676;23.352;2023-04-15T01:27:44;8.38;;;3.42;;
56830;SDS011;42713;42.676;23.352;2023-04-15T01:30:09;9.27;;;3.63;;
56830;SDS011;42713;42.676;23.352;2023-04-15T01:32:35;14.18;;;3.53;;
56830;SDS011;42713;42.676;23.352;2023-04-15T01:35:01;10.82;;;3.63;;
56830;SDS011;42713;42.676;23.352;2023-04-15T01:37:27;9.50;;;3.33;;
56830;SDS011;42713;42.676;23.352;2023-04-15T01:39:53;9.15;;;3.95;;
56830;SDS011;42713;42.676;23.352;2023-04-15T01:42:19;8.75;;;3.17;;
56830;SDS011;42713;42.676;23.352;2023-04-15T01:44:45;10.18;;;3.30;;
56830;SDS011;42713;42.676;23.352;2023-04-15T01:47:11;8.35;;;3.50;;
56830;SDS011;42713;42.676;23.352;2023-04-15T01:49:37;9.27;;;3.10;;
56830;SDS011;42713;42.676;23.352;2023-04-15T01:52:02;10.40;;;3.22;;
56830;SDS011;42713;42.676;23.352;2023-04-15T01:54:28;8.23;;;3.20;;
56830;SDS011;42713;42.676;23.352;2023-04-15T01:56:53;8.63;;;3.33;;
56830;SDS011;42713;42.676;23.352;2023-04-15T01:59:19;8.82;;;2.88;;
56830;SDS011;42713;42.676;23.352;2023-04-15T02:01:44;10.00;;;3.17;;
56830;SDS011;42713;42.676;23.352;2023-04-15T02:04:10;8.75;;;2.95;;
56830;SDS011;42713;42.676;23.352;2023-04-15T02:06:44;10.52;;;3.25;;
56830;SDS011;42713;42.676;23.352;2023-04-15T02:09:10;8.05;;;2.92;;
56830;SDS011;42713;42.676;23.352;2023-04-15T02:11:36;8.88;;;2.92;;
56830;SDS011;42713;42.676;23.352;2023-04-15T02:14:02;10.13;;;3.47;;
56830;SDS011;42713;42.676;23.352;2023-04-15T02:16:31;8.68;;;3.17;;
56830;SDS011;42713;42.676;23.352;2023-04-15T02:18:58;11.05;;;3.20;;
56830;SDS011;42713;42.676;23.352;2023-04-15T02:21:25;9.30;;;3.08;;
56830;SDS011;42713;42.676;23.352;2023-04-15T02:23:51;10.48;;;3.40;;
56830;SDS011;42713;42.676;23.352;2023-04-15T02:26:18;7.68;;;2.88;;
56830;SDS011;42713;42.676;23.352;2023-04-15T02:28:44;7.10;;;2.88;;
56830;SDS011;42713;42.676;23.352;2023-04-15T02:31:10;9.73;;;3.33;;
56830;SDS011;42713;42.676;23.352;2023-04-15T02:33:36;7.47;;;3.08;;
56830;SDS011;42713;42.676;23.352;2023-04-15T02:36:01;9.00;;;3.40;;
56830;SDS011;42713;42.676;23.352;2023-04-15T02:38:27;9.13;;;3.05;;
56830;SDS011;42713;42.676;23.352;2023-04-15T02:40:53;10.07;;;3.70;;
56830;SDS011;42713;42.676;23.352;2023-04-15T02:43:18;8.32;;;2.90;;
56830;SDS011;42713;42.676;23.352;2023-04-15T02:45:44;9.75;;;3.25;;
56830;SDS011;42713;42.676;23.352;2023-04-15T02:48:11;13.00;;;3.33;;
56830;SDS011;42713;42.676;23.352;2023-04-15T02:50:37;9.73;;;3.30;;
56830;SDS011;42713;42.676;23.352;2023-04-15T02:53:05;9.00;;;3.60;;
56830;SDS011;42713;42.676;23.352;2023-04-15T02:55:31;12.88;;;4.55;;
56830;SDS011;42713;42.676;23.352;2023-04-15T02:57:57;12.55;;;5.00;;
56830;SDS011;42713;42.676;23.352;2023-04-15T03:00:25;11.95;;;4.55;;
56830;SDS011;42713;42.676;23.352;2023-04-15T03:02:56;13.45;;;4.40;;
56830;SDS011;42713;42.676;23.352;2023-04-15T03:05:30;13.13;;;4.97;;
56830;SDS011;42713;42.676;23.352;2023-04-15T03:07:56;12.90;;;4.90;;
56830;SDS011;42713;42.676;23.352;2023-04-15T03:10:22;13.45;;;5.20;;
56830;SDS011;42713;42.676;23.352;2023-04-15T03:12:47;14.57;;;5.03;;
56830;SDS011;42713;42.676;23.352;2023-04-15T03:15:13;10.73;;;4.40;;
56830;SDS011;42713;42.676;23.352;2023-04-15T03:17:39;11.73;;;4.93;;
56830;SDS011;42713;42.676;23.352;2023-04-15T03:20:04;10.15;;;4.18;;
56830;SDS011;42713;42.676;23.352;2023-04-15T03:22:31;9.30;;;4.30;;
56830;SDS011;42713;42.676;23.352;2023-04-15T03:24:56;10.65;;;4.03;;
56830;SDS011;42713;42.676;23.352;2023-04-15T03:27:22;9.80;;;4.13;;
56830;SDS011;42713;42.676;23.352;2023-04-15T03:29:48;10.00;;;4.15;;
56830;SDS011;42713;42.676;23.352;2023-04-15T03:32:14;10.10;;;4.03;;
56830;SDS011;42713;42.676;23.352;2023-04-15T03:34:39;10.40;;;4.13;;
56830;SDS011;42713;42.676;23.352;2023-04-15T03:37:06;9.52;;;4.25;;
56830;SDS011;42713;42.676;23.352;2023-04-15T03:39:31;11.05;;;3.30;;
56830;SDS011;42713;42.676;23.352;2023-04-15T03:41:57;11.45;;;3.80;;
56830;SDS011;42713;42.676;23.352;2023-04-15T03:44:25;8.60;;;3.53;;
56830;SDS011;42713;42.676;23.352;2023-04-15T03:46:50;9.00;;;3.33;;
56830;SDS011;42713;42.676;23.352;2023-04-15T03:49:16;9.25;;;3.90;;
56830;SDS011;42713;42.676;23.352;2023-04-15T03:51:43;7.55;;;3.08;;
56830;SDS011;42713;42.676;23.352;2023-04-15T03:54:09;9.63;;;3.85;;
56830;SDS011;42713;42.676;23.352;2023-04-15T03:56:35;10.18;;;4.00;;
56830;SDS011;42713;42.676;23.352;2023-04-15T03:59:00;9.70;;;3.47;;
56830;SDS011;42713;42.676;23.352;2023-04-15T04:01:26;9.82;;;3.65;;
56830;SDS011;42713;42.676;23.352;2023-04-15T04:03:51;10.00;;;3.50;;
56830;SDS011;42713;42.676;23.352;2023-04-15T04:06:17;11.60;;;3.50;;
56830;SDS011;42713;42.676;23.352;2023-04-15T04:08:43;9.32;;;3.63;;
56830;SDS011;42713;42.676;23.352;2023-04-15T04:11:08;8.45;;;3.63;;
56830;SDS011;42713;42.676;23.352;2023-04-15T04:13:34;12.23;;;3.40;;
56830;SDS011;42713;42.676;23.352;2023-04-15T04:15:59;9.00;;;3.38;;
56830;SDS011;42713;42.676;23.352;2023-04-15T04:18:25;7.93;;;3.08;;
56830;SDS011;42713;42.676;23.352;2023-04-15T04:20:51;9.48;;;3.40;;
56830;SDS011;42713;42.676;23.352;2023-04-15T04:23:16;8.30;;;3.50;;
56830;SDS011;42713;42.676;23.352;2023-04-15T04:25:41;7.47;;;3.05;;
56830;SDS011;42713;42.676;23.352;2023-04-15T04:28:07;15.98;;;4.18;;
56830;SDS011;42713;42.676;23.352;2023-04-15T04:30:34;8.65;;;3.60;;
56830;SDS011;42713;42.676;23.352;2023-04-15T04:32:59;10.35;;;4.13;;
56830;SDS011;42713;42.676;23.352;2023-04-15T04:35:25;11.45;;;4.18;;
56830;SDS011;42713;42.676;23.352;2023-04-15T04:37:51;13.68;;;6.28;;
56830;SDS011;42713;42.676;23.352;2023-04-15T04:40:17;14.52;;;6.72;;
56830;SDS011;42713;42.676;23.352;2023-04-15T04:42:43;13.75;;;6.68;;
56830;SDS011;42713;42.676;23.352;2023-04-15T04:45:09;14.10;;;6.45;;
56830;SDS011;42713;42.676;23.352;2023-04-15T04:47:34;14.35;;;6.25;;
56830;SDS011;42713;42.676;23.352;2023-04-15T04:50:00;15.80;;;6.68;;
56830;SDS011;42713;42.676;23.352;2023-04-15T04:52:25;14.80;;;6.88;;
56830;SDS011;42713;42.676;23.352;2023-04-15T04:54:51;14.25;;;6.32;;
56830;SDS011;42713;42.676;23.352;2023-04-15T04:57:16;16.25;;;6.88;;
56830;SDS011;42713;42.676;23.352;2023-04-15T04:59:42;13.65;;;6.18;;
56830;SDS011;42713;42.676;23.352;2023-04-15T05:02:07;15.20;;;6.50;;
56830;SDS011;42713;42.676;23.352;2023-04-15T05:04:33;14.45;;;6.35;;
56830;SDS011;42713;42.676;23.352;2023-04-15T05:06:59;13.43;;;6.88;;
56830;SDS011;42713;42.676;23.352;2023-04-15T05:09:24;16.20;;;6.55;;
56830;SDS011;42713;42.676;23.352;2023-04-15T05:11:50;14.88;;;6.28;;
56830;SDS011;42713;42.676;23.352;2023-04-15T05:14:16;17.95;;;5.95;;
56830;SDS011;42713;42.676;23.352;2023-04-15T05:16:41;12.15;;;6.13;;
56830;SDS011;42713;42.676;23.352;2023-04-15T05:19:07;12.65;;;6.25;;
56830;SDS011;42713;42.676;23.352;2023-04-15T05:21:32;12.60;;;5.70;;
56830;SDS011;42713;42.676;23.352;2023-04-15T05:23:57;15.68;;;6.00;;
56830;SDS011;42713;42.676;23.352;2023-04-15T05:26:23;13.20;;;5.82;;
56830;SDS011;42713;42.676;23.352;2023-04-15T05:28:49;14.32;;;5.40;;
56830;SDS011;42713;42.676;23.352;2023-04-15T05:31:14;11.90;;;5.20;;
56830;SDS011;42713;42.676;23.352;2023-04-15T05:33:40;12.60;;;4.95;;
56830;SDS011;42713;42.676;23.352;2023-04-15T05:36:06;13.57;;;4.90;;
56830;SDS011;42713;42.676;23.352;2023-04-15T05:38:32;12.23;;;5.13;;
56830;SDS011;42713;42.676;23.352;2023-04-15T05:40:57;13.68;;;5.75;;
56830;SDS011;42713;42.676;23.352;2023-04-15T05:43:23;13.38;;;5.15;;
56830;SDS011;42713;42.676;23.352;2023-04-15T05:45:48;15.02;;;4.88;;
56830;SDS011;42713;42.676;23.352;2023-04-15T05:48:14;15.02;;;5.63;;
56830;SDS011;42713;42.676;23.352;2023-04-15T05:50:42;11.98;;;5.50;;
56830;SDS011;42713;42.676;23.352;2023-04-15T05:53:08;14.40;;;5.75;;
56830;SDS011;42713;42.676;23.352;2023-04-15T05:55:33;14.43;;;6.50;;
56830;SDS011;42713;42.676;23.352;2023-04-15T05:57:59;14.65;;;6.25;;
56830;SDS011;42713;42.676;23.352;2023-04-15T06:00:24;14.82;;;6.50;;
56830;SDS011;42713;42.676;23.352;2023-04-15T06:02:50;14.27;;;6.03;;
56830;SDS011;42713;42.676;23.352;2023-04-15T06:05:16;13.32;;;5.40;;
56830;SDS011;42713;42.676;23.352;2023-04-15T06:07:42;16.10;;;6.40;;
56830;SDS011;42713;42.676;23.352;2023-04-15T06:10:08;14.25;;;5.78;;
56830;SDS011;42713;42.676;23.352;2023-04-15T06:12:34;16.08;;;4.75;;
56830;SDS011;42713;42.676;23.352;2023-04-15T06:14:59;11.52;;;4.68;;
56830;SDS011;42713;42.676;23.352;2023-04-15T06:17:25;12.25;;;3.95;;
56830;SDS011;42713;42.676;23.352;2023-04-15T06:19:50;11.65;;;4.22;;
56830;SDS011;42713;42.676;23.352;2023-04-15T06:22:20;10.43;;;4.32;;
56830;SDS011;42713;42.676;23.352;2023-04-15T06:24:47;10.88;;;4.10;;
56830;SDS011;42713;42.676;23.352;2023-04-15T06:27:14;8.63;;;3.50;;
56830;SDS011;42713;42.676;23.352;2023-04-15T06:29:40;8.70;;;3.80;;
56830;SDS011;42713;42.676;23.352;2023-04-15T06:32:06;8.38;;;3.55;;
56830;SDS011;42713;42.676;23.352;2023-04-15T06:34:31;9.85;;;4.10;;
56830;SDS011;42713;42.676;23.352;2023-04-15T06:36:57;10.30;;;3.80;;
56830;SDS011;42713;42.676;23.352;2023-04-15T06:39:22;9.70;;;3.70;;
56830;SDS011;42713;42.676;23.352;2023-04-15T06:41:48;10.10;;;3.65;;
56830;SDS011;42713;42.676;23.352;2023-04-15T06:44:13;9.43;;;3.83;;
56830;SDS011;42713;42.676;23.352;2023-04-15T06:46:39;11.32;;;4.30;;
56830;SDS011;42713;42.676;23.352;2023-04-15T06:49:04;12.38;;;4.50;;
56830;SDS011;42713;42.676;23.352;2023-04-15T06:51:30;11.60;;;4.47;;
56830;SDS011;42713;42.676;23.352;2023-04-15T06:53:56;12.55;;;4.68;;
56830;SDS011;42713;42.676;23.352;2023-04-15T06:56:22;12.40;;;4.72;;
56830;SDS011;42713;42.676;23.352;2023-04-15T06:58:47;13.60;;;4.25;;
56830;SDS011;42713;42.676;23.352;2023-04-15T07:01:16;10.48;;;4.15;;
56830;SDS011;42713;42.676;23.352;2023-04-15T07:03:42;12.65;;;4.45;;
56830;SDS011;42713;42.676;23.352;2023-04-15T07:06:08;8.05;;;3.53;;
56830;SDS011;42713;42.676;23.352;2023-04-15T07:08:34;13.18;;;4.15;;
56830;SDS011;42713;42.676;23.352;2023-04-15T07:10:59;10.32;;;3.65;;
56830;SDS011;42713;42.676;23.352;2023-04-15T07:13:25;11.38;;;3.95;;
56830;SDS011;42713;42.676;23.352;2023-04-15T07:15:51;10.48;;;4.45;;
56830;SDS011;42713;42.676;23.352;2023-04-15T07:18:17;12.13;;;4.32;;
56830;SDS011;42713;42.676;23.352;2023-04-15T07:20:42;9.23;;;3.88;;
56830;SDS011;42713;42.676;23.352;2023-04-15T07:23:08;11.57;;;3.55;;
56830;SDS011;42713;42.676;23.352;2023-04-15T07:25:34;16.23;;;6.03;;
56830;SDS011;42713;42.676;23.352;2023-04-15T07:27:59;15.52;;;6.43;;
56830;SDS011;42713;42.676;23.352;2023-04-15T07:30:26;11.00;;;4.32;;
56830;SDS011;42713;42.676;23.352;2023-04-15T07:32:53;11.38;;;3.70;;
56830;SDS011;42713;42.676;23.352;2023-04-15T07:35:18;16.15;;;5.65;;
56830;SDS011;42713;42.676;23.352;2023-04-15T07:37:45;14.25;;;4.35;;
56830;SDS011;42713;42.676;23.352;2023-04-15T07:40:11;14.05;;;4.28;;
56830;SDS011;42713;42.676;23.352;2023-04-15T07:42:38;13.77;;;5.57;;
56830;SDS011;42713;42.676;23.352;2023-04-15T07:45:04;14.23;;;4.97;;
56830;SDS011;42713;42.676;23.352;2023-04-15T07:47:29;9.95;;;3.95;;
56830;SDS011;42713;42.676;23.352;2023-04-15T07:49:55;12.75;;;3.63;;
56830;SDS011;42713;42.676;23.352;2023-04-15T07:52:20;9.98;;;4.75;;
56830;SDS011;42713;42.676;23.352;2023-04-15T07:54:46;11.50;;;4.28;;
56830;SDS011;42713;42.676;23.352;2023-04-15T07:57:11;13.48;;;5.65;;
56830;SDS011;42713;42.676;23.352;2023-04-15T07:59:37;10.60;;;3.67;;
56830;SDS011;42713;42.676;23.352;2023-04-15T08:02:02;11.27;;;3.80;;
56830;SDS011;42713;42.676;23.352;2023-04-15T08:04:28;11.65;;;4.05;;
56830;SDS011;42713;42.676;23.352;2023-04-15T08:06:53;12.55;;;3.53;;
56830;SDS011;42713;42.676;23.352;2023-04-15T08:09:19;8.45;;;3.60;;
56830;SDS011;42713;42.676;23.352;2023-04-15T08:11:47;10.05;;;3.70;;
56830;SDS011;42713;42.676;23.352;2023-04-15T08:14:13;12.05;;;3.60;;
56830;SDS011;42713;42.676;23.352;2023-04-15T08:16:38;10.98;;;3.75;;
56830;SDS011;42713;42.676;23.352;2023-04-15T08:19:04;10.68;;;3.38;;
56830;SDS011;42713;42.676;23.352;2023-04-15T08:21:30;11.77;;;3.95;;
56830;SDS011;42713;42.676;23.352;2023-04-15T08:23:55;10.48;;;3.72;;
56830;SDS011;42713;42.676;23.352;2023-04-15T08:26:21;13.20;;;3.70;;
56830;SDS011;42713;42.676;23.352;2023-04-15T08:28:47;9.68;;;3.28;;
56830;SDS011;42713;42.676;23.352;2023-04-15T08:31:13;8.80;;;3.03;;
56830;SDS011;42713;42.676;23.352;2023-04-15T08:33:40;8.38;;;3.00;;
56830;SDS011;42713;42.676;23.352;2023-04-15T08:36:06;9.15;;;3.33;;
56830;SDS011;42713;42.676;23.352;2023-04-15T08:38:32;13.00;;;2.88;;
56830;SDS011;42713;42.676;23.352;2023-04-15T08:40:59;13.50;;;2.97;;
56830;SDS011;42713;42.676;23.352;2023-04-15T08:43:27;10.93;;;3.53;;
56830;SDS011;42713;42.676;23.352;2023-04-15T08:45:58;10.95;;;3.20;;
56830;SDS011;42713;42.676;23.352;2023-04-15T08:48:27;10.80;;;3.42;;
56830;SDS011;42713;42.676;23.352;2023-04-15T08:50:54;10.40;;;3.03;;
56830;SDS011;42713;42.676;23.352;2023-04-15T08:53:20;9.13;;;3.00;;
56830;SDS011;42713;42.676;23.352;2023-04-15T08:55:47;14.43;;;3.60;;
56830;SDS011;42713;42.676;23.352;2023-04-15T08:58:17;10.88;;;2.67;;
56830;SDS011;42713;42.676;23.352;2023-04-15T09:00:44;9.15;;;2.80;;
56830;SDS011;42713;42.676;23.352;2023-04-15T09:03:10;7.97;;;2.40;;
56830;SDS011;42713;42.676;23.352;2023-04-15T09:05:35;8.38;;;2.50;;
56830;SDS011;42713;42.676;23.352;2023-04-15T09:08:01;8.48;;;2.88;;
56830;SDS011;42713;42.676;23.352;2023-04-15T09:10:28;8.23;;;2.50;;
56830;SDS011;42713;42.676;23.352;2023-04-15T09:12:55;7.97;;;2.38;;
56830;SDS011;42713;42.676;23.352;2023-04-15T09:15:21;8.18;;;1.92;;
56830;SDS011;42713;42.676;23.352;2023-04-15T09:17:49;6.97;;;1.95;;
56830;SDS011;42713;42.676;23.352;2023-04-15T09:20:15;7.75;;;2.10;;
56830;SDS011;42713;42.676;23.352;2023-04-15T09:22:44;8.13;;;2.00;;
56830;SDS011;42713;42.676;23.352;2023-04-15T09:27:49;5.20;;;1.92;;
56830;SDS011;42713;42.676;23.352;2023-04-15T09:30:19;8.43;;;1.90;;
56830;SDS011;42713;42.676;23.352;2023-04-15T09:32:48;6.95;;;1.90;;
56830;SDS011;42713;42.676;23.352;2023-04-15T09:35:14;9.02;;;2.03;;
56830;SDS011;42713;42.676;23.352;2023-04-15T09:37:40;12.65;;;3.58;;
56830;SDS011;42713;42.676;23.352;2023-04-15T09:40:05;41.15;;;17.45;;
56830;SDS011;42713;42.676;23.352;2023-04-15T09:42:31;19.95;;;7.10;;
56830;SDS011;42713;42.676;23.352;2023-04-15T09:45:07;14.73;;;6.03;;
56830;SDS011;42713;42.676;23.352;2023-04-15T09:47:33;12.48;;;4.13;;
56830;SDS011;42713;42.676;23.352;2023-04-15T09:49:59;7.13;;;2.35;;
56830;SDS011;42713;42.676;23.352;2023-04-15T09:52:25;6.82;;;1.92;;
56830;SDS011;42713;42.676;23.352;2023-04-15T09:54:54;8.68;;;2.00;;
56830;SDS011;42713;42.676;23.352;2023-04-15T09:57:21;6.97;;;1.92;;
56830;SDS011;42713;42.676;23.352;2023-04-15T09:59:48;9.20;;;2.10;;
56830;SDS011;42713;42.676;23.352;2023-04-15T10:02:14;8.13;;;2.15;;
56830;SDS011;42713;42.676;23.352;2023-04-15T10:04:40;8.63;;;2.35;;
56830;SDS011;42713;42.676;23.352;2023-04-15T10:07:09;6.97;;;2.03;;
56830;SDS011;42713;42.676;23.352;2023-04-15T10:09:37;6.95;;;2.00;;
56830;SDS011;42713;42.676;23.352;2023-04-15T10:12:03;7.35;;;1.88;;
56830;SDS011;42713;42.676;23.352;2023-04-15T10:14:33;4.13;;;1.55;;
56830;SDS011;42713;42.676;23.352;2023-04-15T10:17:00;5.00;;;1.40;;
56830;SDS011;42713;42.676;23.352;2023-04-15T10:19:30;11.48;;;2.03;;
56830;SDS011;42713;42.676;23.352;2023-04-15T10:21:57;4.85;;;1.30;;
56830;SDS011;42713;42.676;23.352;2023-04-15T10:24:23;7.28;;;1.10;;
56830;SDS011;42713;42.676;23.352;2023-04-15T10:26:50;3.90;;;1.23;;
56830;SDS011;42713;42.676;23.352;2023-04-15T10:29:16;5.43;;;1.25;;
56830;SDS011;42713;42.676;23.352;2023-04-15T10:31:42;4.82;;;0.95;;
56830;SDS011;42713;42.676;23.352;2023-04-15T10:34:08;4.13;;;1.00;;
56830;SDS011;42713;42.676;23.352;2023-04-15T10:36:35;4.50;;;1.30;;
56830;SDS011;42713;42.676;23.352;2023-04-15T10:39:01;5.93;;;0.90;;
56830;SDS011;42713;42.676;23.352;2023-04-15T10:42:04;5.50;;;1.38;;
56830;SDS011;42713;42.676;23.352;2023-04-15T10:44:31;4.07;;;1.20;;
56830;SDS011;42713;42.676;23.352;2023-04-15T10:46:57;3.63;;;1.10;;
56830;SDS011;42713;42.676;23.352;2023-04-15T10:49:24;5.53;;;1.00;;
56830;SDS011;42713;42.676;23.352;2023-04-15T10:51:50;4.85;;;0.93;;
56830;SDS011;42713;42.676;23.352;2023-04-15T10:59:36;5.32;;;1.15;;
56830;SDS011;42713;42.676;23.352;2023-04-15T11:02:04;5.60;;;1.13;;
56830;SDS011;42713;42.676;23.352;2023-04-15T11:07:15;5.40;;;1.38;;
56830;SDS011;42713;42.676;23.352;2023-04-15T11:09:57;4.82;;;1.48;;
56830;SDS011;42713;42.676;23.352;2023-04-15T11:12:22;7.15;;;1.80;;
56830;SDS011;42713;42.676;23.352;2023-04-15T11:14:59;2.58;;;1.00;;
56830;SDS011;42713;42.676;23.352;2023-04-15T11:17:27;4.65;;;1.27;;
56830;SDS011;42713;42.676;23.352;2023-04-15T11:19:53;6.78;;;1.30;;
56830;SDS011;42713;42.676;23.352;2023-04-15T11:22:18;7.18;;;1.38;;
56830;SDS011;42713;42.676;23.352;2023-04-15T11:24:47;3.90;;;1.15;;
56830;SDS011;42713;42.676;23.352;2023-04-15T11:27:19;5.97;;;1.60;;
56830;SDS011;42713;42.676;23.352;2023-04-15T11:29:46;5.28;;;1.30;;
56830;SDS011;42713;42.676;23.352;2023-04-15T11:32:11;5.43;;;1.33;;
56830;SDS011;42713;42.676;23.352;2023-04-15T11:34:36;5.45;;;1.50;;
56830;SDS011;42713;42.676;23.352;2023-04-15T11:37:05;5.53;;;1.20;;
56830;SDS011;42713;42.676;23.352;2023-04-15T11:39:32;7.53;;;1.55;;
56830;SDS011;42713;42.676;23.352;2023-04-15T11:41:57;5.32;;;1.20;;
56830;SDS011;42713;42.676;23.352;2023-04-15T11:44:23;2.75;;;1.20;;
56830;SDS011;42713;42.676;23.352;2023-04-15T11:46:48;3.90;;;0.63;;
56830;SDS011;42713;42.676;23.352;2023-04-15T11:49:35;4.43;;;0.70;;
56830;SDS011;42713;42.676;23.352;2023-04-15T11:52:09;3.35;;;0.85;;
56830;SDS011;42713;42.676;23.352;2023-04-15T11:54:35;2.15;;;0.90;;
56830;SDS011;42713;42.676;23.352;2023-04-15T11:57:01;3.35;;;0.65;;
56830;SDS011;42713;42.676;23.352;2023-04-15T11:59:28;2.35;;;0.60;;
56830;SDS011;42713;42.676;23.352;2023-04-15T12:02:12;2.67;;;0.70;;
56830;SDS011;42713;42.676;23.352;2023-04-15T12:04:38;4.20;;;0.90;;
56830;SDS011;42713;42.676;23.352;2023-04-15T12:07:04;3.83;;;0.98;;
56830;SDS011;42713;42.676;23.352;2023-04-15T12:09:30;3.70;;;0.93;;
56830;SDS011;42713;42.676;23.352;2023-04-15T12:12:02;4.10;;;0.85;;
56830;SDS011;42713;42.676;23.352;2023-04-15T12:14:30;4.28;;;1.00;;
56830;SDS011;42713;42.676;23.352;2023-04-15T12:16:58;4.40;;;0.90;;
56830;SDS011;42713;42.676;23.352;2023-04-15T12:21:59;4.28;;;0.95;;
56830;SDS011;42713;42.676;23.352;2023-04-15T12:26:53;3.80;;;0.77;;
56830;SDS011;42713;42.676;23.352;2023-04-15T12:29:25;2.92;;;0.70;;
56830;SDS011;42713;42.676;23.352;2023-04-15T12:31:54;6.40;;;1.08;;
56830;SDS011;42713;42.676;23.352;2023-04-15T12:34:25;2.72;;;0.85;;
56830;SDS011;42713;42.676;23.352;2023-04-15T12:36:58;5.68;;;1.00;;
56830;SDS011;42713;42.676;23.352;2023-04-15T12:39:26;3.17;;;0.82;;
56830;SDS011;42713;42.676;23.352;2023-04-15T12:41:53;4.53;;;0.90;;
56830;SDS011;42713;42.676;23.352;2023-04-15T12:44:21;1.65;;;0.80;;
56830;SDS011;42713;42.676;23.352;2023-04-15T12:46:48;2.17;;;0.77;;
56830;SDS011;42713;42.676;23.352;2023-04-15T12:49:14;4.47;;;0.70;;
56830;SDS011;42713;42.676;23.352;2023-04-15T12:51:40;4.40;;;0.80;;
56830;SDS011;42713;42.676;23.352;2023-04-15T12:54:06;5.70;;;1.02;;
56830;SDS011;42713;42.676;23.352;2023-04-15T12:56:31;3.83;;;1.05;;
56830;SDS011;42713;42.676;23.352;2023-04-15T12:58:57;3.28;;;0.82;;
56830;SDS011;42713;42.676;23.352;2023-04-15T13:01:22;2.65;;;0.60;;
56830;SDS011;42713;42.676;23.352;2023-04-15T13:03:48;3.50;;;0.70;;
56830;SDS011;42713;42.676;23.352;2023-04-15T13:06:15;2.53;;;0.70;;
56830;SDS011;42713;42.676;23.352;2023-04-15T13:08:41;5.93;;;1.80;;
56830;SDS011;42713;42.676;23.352;2023-04-15T13:11:07;2.05;;;0.60;;
56830;SDS011;42713;42.676;23.352;2023-04-15T13:13:32;2.97;;;0.70;;
56830;SDS011;42713;42.676;23.352;2023-04-15T13:15:58;2.88;;;0.95;;
56830;SDS011;42713;42.676;23.352;2023-04-15T13:18:23;5.22;;;1.30;;
56830;SDS011;42713;42.676;23.352;2023-04-15T13:20:49;3.70;;;0.82;;
56830;SDS011;42713;42.676;23.352;2023-04-15T13:23:15;1.98;;;0.77;;
56830;SDS011;42713;42.676;23.352;2023-04-15T13:25:41;4.25;;;0.65;;
56830;SDS011;42713;42.676;23.352;2023-04-15T13:28:06;3.58;;;1.00;;
56830;SDS011;42713;42.676;23.352;2023-04-15T13:30:32;2.95;;;0.90;;
56830;SDS011;42713;42.676;23.352;2023-04-15T13:32:57;4.18;;;1.20;;
56830;SDS011;42713;42.676;23.352;2023-04-15T13:35:23;6.03;;;1.52;;
56830;SDS011;42713;42.676;23.352;2023-04-15T13:37:48;3.50;;;1.08;;
56830;SDS011;42713;42.676;23.352;2023-04-15T13:40:14;5.55;;;1.40;;
56830;SDS011;42713;42.676;23.352;2023-04-15T13:42:40;3.05;;;1.08;;
56830;SDS011;42713;42.676;23.352;2023-04-15T13:45:07;3.92;;;0.77;;
56830;SDS011;42713;42.676;23.352;2023-04-15T13:47:32;1.98;;;0.77;;
56830;SDS011;42713;42.676;23.352;2023-04-15T13:49:58;3.65;;;0.63;;
56830;SDS011;42713;42.676;23.352;2023-04-15T13:52:24;2.00;;;0.60;;
56830;SDS011;42713;42.676;23.352;2023-04-15T13:54:49;1.33;;;0.57;;
56830;SDS011;42713;42.676;23.352;2023-04-15T13:57:14;4.10;;;0.80;;
56830;SDS011;42713;42.676;23.352;2023-04-15T13:59:40;3.90;;;0.95;;
56830;SDS011;42713;42.676;23.352;2023-04-15T14:02:06;4.63;;;0.80;;
56830;SDS011;42713;42.676;23.352;2023-04-15T14:04:31;1.92;;;0.60;;
56830;SDS011;42713;42.676;23.352;2023-04-15T14:06:57;2.83;;;0.60;;
56830;SDS011;42713;42.676;23.352;2023-04-15T14:09:22;2.60;;;0.70;;
56830;SDS011;42713;42.676;23.352;2023-04-15T14:11:51;3.92;;;1.33;;
56830;SDS011;42713;42.676;23.352;2023-04-15T14:14:16;5.15;;;0.90;;
56830;SDS011;42713;42.676;23.352;2023-04-15T14:16:42;3.00;;;0.60;;
56830;SDS011;42713;42.676;23.352;2023-04-15T14:19:08;4.93;;;0.60;;
56830;SDS011;42713;42.676;23.352;2023-04-15T14:21:33;2.15;;;0.73;;
56830;SDS011;42713;42.676;23.352;2023-04-15T14:23:58;5.78;;;1.15;;
56830;SDS011;42713;42.676;23.352;2023-04-15T14:26:24;2.17;;;0.70;;
56830;SDS011;42713;42.676;23.352;2023-04-15T14:28:50;4.28;;;0.60;;
56830;SDS011;42713;42.676;23.352;2023-04-15T14:31:16;2.00;;;0.70;;
56830;SDS011;42713;42.676;23.352;2023-04-15T14:33:41;2.45;;;0.63;;
56830;SDS011;42713;42.676;23.352;2023-04-15T14:36:08;3.90;;;0.90;;
56830;SDS011;42713;42.676;23.352;2023-04-15T14:38:34;2.70;;;0.70;;